createdAt,value
2019-03-09T00:01:16.266Z,1.72
2019-03-09T00:03:45.538Z,1.67
2019-03-09T00:06:14.802Z,2.53
2019-03-09T00:08:44.065Z,2.50
2019-03-09T00:11:13.334Z,1.53
2019-03-09T00:13:42.937Z,2.10
2019-03-09T00:16:12.553Z,1.80
2019-03-09T00:18:42.056Z,2.67
2019-03-09T00:21:11.657Z,2.57
2019-03-09T00:23:42.565Z,3.33
2019-03-09T00:26:16.408Z,1.30
2019-03-09T00:29:02.596Z,5.07
2019-03-09T00:31:33.494Z,2.00
2019-03-09T00:34:02.765Z,2.20
2019-03-09T00:36:32.034Z,4.53
2019-03-09T00:39:01.301Z,1.35
2019-03-09T00:41:30.745Z,2.22
2019-03-09T00:44:00.008Z,2.80
2019-03-09T00:46:29.284Z,6.30
2019-03-09T00:48:58.542Z,2.77
2019-03-09T00:51:27.803Z,3.00
2019-03-09T00:53:57.359Z,3.02
2019-03-09T00:56:26.951Z,1.42
2019-03-09T00:58:56.218Z,4.83
2019-03-09T01:01:25.484Z,3.70
2019-03-09T01:03:54.760Z,3.33
2019-03-09T01:06:24.764Z,2.50
2019-03-09T01:08:54.039Z,2.57
2019-03-09T01:11:23.310Z,3.05
2019-03-09T01:13:52.872Z,1.45
2019-03-09T01:16:22.136Z,2.40
2019-03-09T01:18:51.683Z,2.25
2019-03-09T01:21:20.958Z,2.05
2019-03-09T01:23:50.500Z,1.00
2019-03-09T01:26:19.767Z,1.40
2019-03-09T01:28:49.028Z,4.50
2019-03-09T01:31:18.300Z,2.60
2019-03-09T01:33:47.572Z,2.60
2019-03-09T01:36:16.831Z,5.23
2019-03-09T01:38:46.097Z,1.60
2019-03-09T01:41:15.366Z,3.37
2019-03-09T01:43:44.631Z,4.87
2019-03-09T01:46:13.889Z,3.33
2019-03-09T01:48:43.151Z,1.63
2019-03-09T01:51:12.413Z,1.60
2019-03-09T01:53:41.992Z,1.87
2019-03-09T01:56:11.250Z,2.40
2019-03-09T01:58:40.513Z,1.87
2019-03-09T02:01:10.099Z,1.70
2019-03-09T02:03:39.711Z,2.03
2019-03-09T02:06:09.047Z,1.10
2019-03-09T02:08:38.309Z,1.37
2019-03-09T02:11:07.575Z,2.70
2019-03-09T02:13:36.849Z,1.20
2019-03-09T02:16:06.176Z,1.17
2019-03-09T02:18:35.444Z,1.70
2019-03-09T02:21:05.008Z,1.73
2019-03-09T02:23:34.298Z,1.13
2019-03-09T02:26:03.622Z,1.20
2019-03-09T02:28:32.962Z,1.50
2019-03-09T02:31:02.534Z,1.53
2019-03-09T02:33:31.789Z,4.33
2019-03-09T02:36:01.334Z,1.73
2019-03-09T02:38:32.240Z,2.13
2019-03-09T02:41:01.502Z,4.10
2019-03-09T02:43:30.769Z,3.83
2019-03-09T02:46:00.115Z,3.80
2019-03-09T02:48:29.372Z,1.60
2019-03-09T02:50:58.632Z,2.13
2019-03-09T02:53:28.232Z,1.27
2019-03-09T02:55:57.500Z,1.70
2019-03-09T02:58:26.760Z,2.30
2019-03-09T03:01:00.634Z,1.20
2019-03-09T03:03:29.893Z,1.47
2019-03-09T03:05:59.491Z,1.40
2019-03-09T03:08:28.757Z,1.80
2019-03-09T03:10:58.288Z,1.27
2019-03-09T03:13:27.797Z,2.70
2019-03-09T03:15:57.056Z,1.73
2019-03-09T03:18:26.552Z,1.00
2019-03-09T03:20:55.814Z,1.77
2019-03-09T03:23:25.072Z,1.83
2019-03-09T03:25:54.351Z,2.40
2019-03-09T03:28:23.593Z,0.90
2019-03-09T03:30:52.893Z,1.43
2019-03-09T03:33:22.131Z,2.17
2019-03-09T03:35:51.396Z,0.80
2019-03-09T03:38:20.657Z,2.00
2019-03-09T03:40:49.915Z,1.47
2019-03-09T03:43:19.172Z,1.20
2019-03-09T03:45:48.436Z,0.70
2019-03-09T03:48:17.707Z,0.97
2019-03-09T03:50:46.969Z,2.60
2019-03-09T03:53:16.246Z,1.13
2019-03-09T03:55:45.563Z,1.37
2019-03-09T03:58:15.208Z,0.83
2019-03-09T04:00:44.475Z,2.10
2019-03-09T04:03:14.007Z,4.13
2019-03-09T04:05:43.519Z,1.50
2019-03-09T04:08:13.455Z,0.90
2019-03-09T04:10:43.407Z,2.40
2019-03-09T04:13:12.745Z,0.93
2019-03-09T04:15:41.997Z,1.20
2019-03-09T04:18:11.558Z,1.70
2019-03-09T04:20:41.164Z,1.33
2019-03-09T04:23:10.427Z,0.83
2019-03-09T04:25:39.975Z,0.80
2019-03-09T04:28:09.236Z,1.47
2019-03-09T04:30:38.500Z,1.43
2019-03-09T04:33:08.076Z,1.10
2019-03-09T04:35:37.327Z,1.83
2019-03-09T04:38:06.588Z,1.47
2019-03-09T04:40:36.179Z,0.80
2019-03-09T04:43:05.823Z,4.97
2019-03-09T04:45:35.092Z,1.90
2019-03-09T04:48:04.348Z,1.70
2019-03-09T04:50:33.625Z,1.73
2019-03-09T04:53:03.192Z,1.20
2019-03-09T04:55:32.464Z,0.87
2019-03-09T04:58:01.999Z,1.33
2019-03-09T05:00:31.604Z,3.40
2019-03-09T05:03:00.866Z,0.90
2019-03-09T05:05:30.131Z,1.33
2019-03-09T05:08:04.573Z,0.93
2019-03-09T05:10:47.258Z,0.60
2019-03-09T05:13:24.688Z,1.00
2019-03-09T05:15:53.950Z,2.77
2019-03-09T05:18:23.204Z,1.13
2019-03-09T05:20:52.463Z,1.67
2019-03-09T05:23:21.724Z,1.23
2019-03-09T05:25:50.998Z,1.10
2019-03-09T05:28:20.262Z,1.00
2019-03-09T05:30:49.524Z,0.50
2019-03-09T05:33:18.789Z,0.90
2019-03-09T05:35:48.339Z,1.00
2019-03-09T05:38:17.601Z,2.10
2019-03-09T05:40:46.874Z,1.23
2019-03-09T05:43:16.142Z,0.90
2019-03-09T05:45:45.407Z,0.57
2019-03-09T05:48:14.671Z,1.57
2019-03-09T05:50:43.929Z,2.17
2019-03-09T05:53:20.570Z,0.63
2019-03-09T05:55:49.850Z,1.35
2019-03-09T05:58:19.103Z,0.60
2019-03-09T06:00:48.714Z,0.60
2019-03-09T06:03:17.976Z,0.97
2019-03-09T06:05:51.611Z,1.30
2019-03-09T06:08:21.221Z,1.70
2019-03-09T06:10:50.824Z,0.50
2019-03-09T06:15:49.325Z,0.63
2019-03-09T06:18:18.972Z,0.90
2019-03-09T06:20:48.202Z,0.50
2019-03-09T06:23:17.745Z,0.50
2019-03-09T06:25:47.349Z,0.50
2019-03-09T06:28:16.613Z,0.77
2019-03-09T06:30:45.964Z,0.50
2019-03-09T06:33:24.877Z,1.23
2019-03-09T06:36:04.720Z,1.17
2019-03-09T06:38:41.987Z,0.50
2019-03-09T06:41:21.982Z,0.40
2019-03-09T06:43:51.485Z,0.53
2019-03-09T06:46:20.989Z,0.87
2019-03-09T06:48:50.497Z,0.60
2019-03-09T06:51:20.020Z,1.63
2019-03-09T06:53:49.279Z,0.40
2019-03-09T06:56:18.901Z,0.50
2019-03-09T06:58:48.503Z,0.40
2019-03-09T07:01:24.561Z,0.40
2019-03-09T07:03:53.820Z,0.40
2019-03-09T07:06:23.087Z,0.40
2019-03-09T07:08:52.344Z,0.50
2019-03-09T07:11:21.607Z,0.80
2019-03-09T07:13:53.237Z,0.53
2019-03-09T07:16:21.861Z,0.90
2019-03-09T07:18:51.504Z,1.17
2019-03-09T07:21:21.009Z,0.77
2019-03-09T07:23:50.531Z,0.43
2019-03-09T07:26:20.042Z,0.50
2019-03-09T07:28:49.626Z,0.60
2019-03-09T07:31:19.139Z,0.50
2019-03-09T07:33:51.470Z,1.60
2019-03-09T07:36:20.736Z,0.80
2019-03-09T07:38:50.614Z,0.60
2019-03-09T07:41:19.877Z,0.30
2019-03-09T07:43:49.431Z,0.40
2019-03-09T07:46:19.028Z,0.80
2019-03-09T07:48:48.636Z,1.47
2019-03-09T07:51:17.962Z,0.50
2019-03-09T07:53:47.553Z,1.07
2019-03-09T07:56:17.154Z,0.40
2019-03-09T07:58:46.767Z,0.53
2019-03-09T08:01:16.368Z,0.30
2019-03-09T08:03:45.883Z,0.50
2019-03-09T08:06:15.485Z,0.70
2019-03-09T08:08:44.760Z,1.10
2019-03-09T08:11:14.303Z,0.50
2019-03-09T08:13:43.895Z,0.70
2019-03-09T08:16:13.208Z,0.50
2019-03-09T08:18:42.482Z,0.40
2019-03-09T08:21:12.018Z,0.40
2019-03-09T08:23:41.285Z,0.30
2019-03-09T08:26:10.554Z,0.40
2019-03-09T08:28:39.832Z,0.67
2019-03-09T08:31:09.101Z,0.40
2019-03-09T08:33:38.402Z,0.40
2019-03-09T08:36:07.656Z,0.30
2019-03-09T08:38:37.218Z,1.80
2019-03-09T08:41:06.498Z,0.40
2019-03-09T08:43:35.765Z,0.77
2019-03-09T08:46:05.018Z,0.60
2019-03-09T08:48:34.296Z,0.67
2019-03-09T08:51:03.564Z,0.47
2019-03-09T08:53:32.865Z,1.10
2019-03-09T08:56:02.107Z,0.50
2019-03-09T08:58:31.404Z,0.40
2019-03-09T09:01:00.666Z,0.40
2019-03-09T09:03:29.943Z,0.40
2019-03-09T09:05:59.203Z,0.50
2019-03-09T09:08:28.487Z,0.30
2019-03-09T09:10:57.750Z,0.40
2019-03-09T09:13:27.033Z,0.37
2019-03-09T09:15:56.372Z,0.47
2019-03-09T09:18:25.911Z,1.07
2019-03-09T09:20:55.183Z,0.40
2019-03-09T09:23:24.464Z,1.40
2019-03-09T09:25:53.750Z,0.37
2019-03-09T09:28:23.017Z,0.30
2019-03-09T09:30:52.274Z,0.43
2019-03-09T09:33:21.829Z,0.40
2019-03-09T09:35:51.104Z,0.40
2019-03-09T09:38:20.738Z,0.33
2019-03-09T09:40:50.023Z,1.00
2019-03-09T09:43:19.290Z,0.40
2019-03-09T09:45:48.562Z,0.40
2019-03-09T09:48:17.832Z,0.40
2019-03-09T09:50:47.104Z,0.30
2019-03-09T09:53:16.371Z,0.77
2019-03-09T09:55:45.644Z,0.43
2019-03-09T09:58:14.911Z,0.50
2019-03-09T10:00:44.184Z,0.73
2019-03-09T10:03:13.458Z,0.40
2019-03-09T10:05:42.722Z,0.30
2019-03-09T10:08:12.000Z,2.63
2019-03-09T10:10:41.264Z,1.57
2019-03-09T10:13:10.829Z,0.30
2019-03-09T10:15:40.101Z,0.40
2019-03-09T10:18:09.366Z,0.40
2019-03-09T10:20:38.649Z,0.40
2019-03-09T10:23:07.915Z,0.47
2019-03-09T10:25:37.194Z,1.27
2019-03-09T10:28:06.466Z,1.13
2019-03-09T10:30:35.740Z,0.43
2019-03-09T10:33:05.014Z,0.60
2019-03-09T10:35:34.639Z,0.60
2019-03-09T10:38:03.926Z,0.40
2019-03-09T10:40:33.201Z,0.30
2019-03-09T10:43:02.470Z,0.30
2019-03-09T10:45:31.744Z,0.40
2019-03-09T10:48:01.016Z,0.40
2019-03-09T10:50:30.290Z,0.30
2019-03-09T10:52:59.562Z,0.50
2019-03-09T10:55:32.018Z,0.40
2019-03-09T10:58:01.293Z,1.40
2019-03-09T11:00:34.817Z,0.50
2019-03-09T11:03:04.087Z,0.40
2019-03-09T11:05:33.491Z,0.57
2019-03-09T11:08:03.120Z,0.40
2019-03-09T11:10:32.396Z,0.30
2019-03-09T11:13:01.733Z,0.30
2019-03-09T11:15:30.965Z,0.80
2019-03-09T11:18:00.239Z,0.30
2019-03-09T11:20:29.521Z,0.40
2019-03-09T11:22:58.790Z,0.30
2019-03-09T11:25:28.311Z,0.30
2019-03-09T11:28:07.574Z,0.50
2019-03-09T11:30:37.022Z,0.37
2019-03-09T11:33:06.366Z,0.40
2019-03-09T11:35:35.973Z,0.97
2019-03-09T11:38:05.243Z,0.40
2019-03-09T11:40:34.526Z,0.40
2019-03-09T11:43:03.797Z,0.50
2019-03-09T11:45:33.103Z,0.40
2019-03-09T11:48:02.447Z,0.40
2019-03-09T11:50:32.085Z,0.50
2019-03-09T11:53:01.359Z,0.30
2019-03-09T11:55:30.632Z,0.33
2019-03-09T11:57:59.898Z,0.30
2019-03-09T12:00:30.818Z,0.30
2019-03-09T12:03:00.337Z,0.30
2019-03-09T12:05:29.624Z,0.50
2019-03-09T12:07:58.881Z,0.40
2019-03-09T12:10:28.148Z,0.57
2019-03-09T12:12:57.417Z,0.50
2019-03-09T12:15:26.685Z,0.50
2019-03-09T12:17:55.958Z,0.60
2019-03-09T12:20:29.790Z,0.47
2019-03-09T12:23:17.675Z,0.40
2019-03-09T12:25:46.951Z,0.30
2019-03-09T12:28:16.219Z,0.50
2019-03-09T12:30:45.771Z,0.40
2019-03-09T12:33:15.044Z,0.73
2019-03-09T12:35:44.375Z,0.50
2019-03-09T12:38:13.892Z,0.50
2019-03-09T12:40:43.146Z,0.37
2019-03-09T12:43:12.421Z,0.67
2019-03-09T12:45:41.935Z,0.40
2019-03-09T12:48:11.450Z,0.40
2019-03-09T12:50:40.731Z,0.50
2019-03-09T12:53:10.297Z,0.60
2019-03-09T12:55:39.562Z,0.40
2019-03-09T12:58:08.840Z,1.60
2019-03-09T13:00:38.400Z,0.50
2019-03-09T13:03:08.011Z,0.40
2019-03-09T13:05:37.277Z,0.40
2019-03-09T13:08:06.546Z,0.80
2019-03-09T13:10:36.122Z,0.40
2019-03-09T13:13:05.477Z,1.10
2019-03-09T13:15:34.820Z,0.40
2019-03-09T13:18:04.088Z,1.07
2019-03-09T13:20:33.353Z,2.00
2019-03-09T13:23:02.624Z,0.50
2019-03-09T13:25:31.888Z,0.40
2019-03-09T13:28:01.157Z,0.63
2019-03-09T13:30:30.425Z,0.60
2019-03-09T13:32:59.704Z,0.60
2019-03-09T13:35:29.218Z,1.40
2019-03-09T13:37:58.832Z,0.80
2019-03-09T13:40:28.094Z,0.50
2019-03-09T13:42:57.644Z,1.13
2019-03-09T13:45:29.949Z,0.60
2019-03-09T13:47:59.227Z,0.40
2019-03-09T13:50:28.586Z,1.30
2019-03-09T13:52:57.862Z,0.50
2019-03-09T13:55:27.150Z,2.00
2019-03-09T13:57:56.442Z,0.50
2019-03-09T14:00:25.716Z,0.47
2019-03-09T14:02:54.982Z,0.50
2019-03-09T14:05:24.254Z,0.50
2019-03-09T14:07:53.559Z,0.47
2019-03-09T14:10:22.828Z,0.40
2019-03-09T14:12:52.100Z,1.00
2019-03-09T14:15:21.367Z,0.67
2019-03-09T14:17:50.643Z,0.47
2019-03-09T14:20:19.914Z,0.40
2019-03-09T14:22:49.186Z,0.90
2019-03-09T14:25:18.462Z,0.50
2019-03-09T14:27:48.707Z,0.60
2019-03-09T14:30:20.907Z,1.30
2019-03-09T14:32:50.181Z,0.70
2019-03-09T14:35:19.445Z,0.70
2019-03-09T14:37:48.790Z,0.50
2019-03-09T14:40:18.214Z,0.60
2019-03-09T14:42:47.807Z,0.67
2019-03-09T14:45:19.697Z,0.50
2019-03-09T14:47:52.044Z,0.63
2019-03-09T14:50:21.318Z,0.40
2019-03-09T14:52:50.586Z,0.30
2019-03-09T14:55:20.150Z,0.50
2019-03-09T14:57:49.662Z,0.40
2019-03-09T15:00:25.449Z,0.57
2019-03-09T15:02:54.729Z,0.93
2019-03-09T15:05:23.997Z,0.50
2019-03-09T15:07:53.262Z,0.60
2019-03-09T15:10:22.535Z,0.50
2019-03-09T15:12:51.806Z,0.80
2019-03-09T15:15:21.850Z,0.53
2019-03-09T15:17:51.119Z,0.50
2019-03-09T15:20:20.391Z,0.40
2019-03-09T15:22:49.929Z,0.40
2019-03-09T15:25:20.278Z,0.40
2019-03-09T15:27:49.897Z,0.40
2019-03-09T15:30:22.029Z,0.40
2019-03-09T15:32:51.362Z,0.40
2019-03-09T15:35:20.630Z,0.30
2019-03-09T15:37:50.243Z,0.40
2019-03-09T15:40:20.515Z,0.43
2019-03-09T15:42:49.788Z,0.40
2019-03-09T15:45:20.480Z,0.40
2019-03-09T15:47:50.008Z,0.30
2019-03-09T15:50:22.614Z,0.30
2019-03-09T15:52:52.194Z,0.70
2019-03-09T15:55:21.543Z,0.90
2019-03-09T15:57:51.098Z,0.40
2019-03-09T16:00:23.506Z,5.40
2019-03-09T16:02:53.281Z,0.40
2019-03-09T16:05:22.546Z,0.40
2019-03-09T16:07:52.287Z,0.30
2019-03-09T16:10:22.928Z,0.50
2019-03-09T16:12:52.528Z,0.40
2019-03-09T16:15:22.048Z,0.40
2019-03-09T16:17:51.319Z,0.37
2019-03-09T16:20:28.788Z,0.50
2019-03-09T16:22:58.114Z,0.50
2019-03-09T16:25:28.987Z,0.60
2019-03-09T16:27:58.439Z,0.40
2019-03-09T16:30:27.713Z,0.40
2019-03-09T16:32:56.985Z,0.50
2019-03-09T16:35:26.506Z,1.30
2019-03-09T16:37:55.769Z,0.40
2019-03-09T16:40:26.517Z,0.40
2019-03-09T16:42:56.038Z,0.50
2019-03-09T16:45:25.323Z,0.40
2019-03-09T16:47:54.924Z,0.50
2019-03-09T16:50:24.533Z,0.60
2019-03-09T16:52:54.135Z,0.60
2019-03-09T16:55:23.742Z,0.73
2019-03-09T16:57:53.353Z,0.57
2019-03-09T17:00:24.403Z,0.50
2019-03-09T17:02:54.006Z,0.50
2019-03-09T17:05:23.353Z,0.60
2019-03-09T17:07:52.649Z,0.60
2019-03-09T17:10:21.923Z,0.97
2019-03-09T17:12:51.506Z,0.70
2019-03-09T17:15:25.769Z,0.60
2019-03-09T17:17:55.337Z,1.10
2019-03-09T17:20:24.946Z,1.60
2019-03-09T17:22:54.215Z,0.60
2019-03-09T17:25:23.744Z,0.50
2019-03-09T17:27:53.227Z,0.40
2019-03-09T17:30:22.766Z,0.60
2019-03-09T17:32:52.282Z,1.13
2019-03-09T17:35:21.866Z,0.60
2019-03-09T17:37:51.142Z,0.93
2019-03-09T17:40:20.405Z,0.77
2019-03-09T17:42:49.981Z,0.63
2019-03-09T17:45:27.608Z,0.97
2019-03-09T17:47:56.885Z,0.60
2019-03-09T17:50:26.488Z,0.80
2019-03-09T17:52:55.757Z,0.70
2019-03-09T17:55:25.035Z,1.10
2019-03-09T17:57:54.591Z,0.93
2019-03-09T18:00:41.839Z,0.70
2019-03-09T18:03:02.093Z,0.97
2019-03-09T18:05:31.616Z,1.37
2019-03-09T18:08:00.899Z,1.47
2019-03-09T18:10:44.266Z,0.80
2019-03-09T18:13:13.538Z,0.60
2019-03-09T18:15:42.811Z,1.00
2019-03-09T18:18:12.078Z,0.93
2019-03-09T18:20:41.358Z,1.10
2019-03-09T18:23:10.625Z,2.50
2019-03-09T18:25:39.918Z,0.90
2019-03-09T18:28:09.181Z,0.93
2019-03-09T18:30:38.458Z,0.70
2019-03-09T18:33:07.733Z,1.23
2019-03-09T18:35:37.011Z,0.77
2019-03-09T18:38:06.279Z,1.10
2019-03-09T18:40:35.570Z,0.90
2019-03-09T18:43:05.138Z,0.80
2019-03-09T18:45:34.422Z,0.70
2019-03-09T18:48:03.698Z,1.07
2019-03-09T18:50:32.979Z,1.37
2019-03-09T18:53:02.250Z,1.07
2019-03-09T18:55:31.518Z,0.80
2019-03-09T18:58:00.790Z,1.53
2019-03-09T19:00:30.133Z,1.77
2019-03-09T19:02:59.398Z,1.93
2019-03-09T19:05:29.607Z,1.67
2019-03-09T19:07:58.933Z,1.10
2019-03-09T19:10:28.203Z,2.03
2019-03-09T19:12:57.767Z,1.70
2019-03-09T19:15:27.034Z,1.93
2019-03-09T19:17:56.575Z,1.07
2019-03-09T19:20:25.842Z,1.03
2019-03-09T19:22:55.116Z,2.13
2019-03-09T19:25:24.618Z,4.40
2019-03-09T19:27:53.964Z,3.63
2019-03-09T19:30:23.972Z,1.50
2019-03-09T19:33:00.431Z,0.83
2019-03-09T19:35:24.756Z,1.50
2019-03-09T19:37:54.030Z,2.17
2019-03-09T19:40:23.721Z,2.47
2019-03-09T19:42:52.989Z,2.00
2019-03-09T19:45:22.696Z,2.00
2019-03-09T19:47:53.632Z,2.23
2019-03-09T19:50:25.027Z,3.63
2019-03-09T19:52:54.554Z,2.93
2019-03-09T19:55:23.823Z,3.20
2019-03-09T19:57:53.345Z,3.63
2019-03-09T20:00:23.186Z,4.43
2019-03-09T20:02:52.453Z,3.30
2019-03-09T20:05:21.724Z,5.20
2019-03-09T20:07:50.992Z,2.73
2019-03-09T20:10:24.290Z,2.10
2019-03-09T20:12:53.574Z,3.90
2019-03-09T20:15:22.846Z,2.87
2019-03-09T20:17:52.379Z,1.83
2019-03-09T20:20:21.647Z,6.17
2019-03-09T20:22:50.919Z,2.50
2019-03-09T20:25:20.184Z,2.30
2019-03-09T20:27:49.455Z,5.40
2019-03-09T20:30:22.340Z,4.10
2019-03-09T20:32:51.612Z,4.33
2019-03-09T20:35:20.880Z,2.17
2019-03-09T20:37:50.176Z,1.87
2019-03-09T20:40:19.443Z,2.20
2019-03-09T20:42:48.970Z,2.67
2019-03-09T20:45:20.347Z,2.67
2019-03-09T20:47:49.629Z,3.27
2019-03-09T20:50:23.528Z,4.10
2019-03-09T20:52:53.131Z,5.03
2019-03-09T20:55:22.412Z,3.80
2019-03-09T20:57:51.690Z,3.63
2019-03-09T21:00:24.378Z,2.47
2019-03-09T21:02:53.663Z,3.23
2019-03-09T21:05:22.997Z,1.73
2019-03-09T21:07:52.624Z,3.47
2019-03-09T21:10:22.184Z,3.10
2019-03-09T21:13:02.819Z,2.87
2019-03-09T21:15:32.339Z,3.37
2019-03-09T21:18:01.607Z,3.20
2019-03-09T21:20:31.209Z,2.80
2019-03-09T21:23:00.549Z,5.43
2019-03-09T21:25:29.819Z,4.00
2019-03-09T21:27:59.159Z,1.90
2019-03-09T21:30:28.519Z,4.53
2019-03-09T21:32:58.126Z,4.73
2019-03-09T21:35:27.386Z,3.77
2019-03-09T21:37:56.661Z,3.80
2019-03-09T21:40:25.930Z,2.33
2019-03-09T21:42:55.235Z,3.67
2019-03-09T21:45:24.823Z,1.70
2019-03-09T21:47:54.445Z,2.10
2019-03-09T21:50:23.700Z,2.97
2019-03-09T21:52:53.019Z,4.50
2019-03-09T21:55:22.284Z,4.27
2019-03-09T21:57:51.554Z,1.67
2019-03-09T22:00:22.385Z,2.60
2019-03-09T22:02:51.663Z,1.00
2019-03-09T22:05:20.943Z,1.43
2019-03-09T22:07:50.212Z,3.50
2019-03-09T22:10:19.482Z,1.40
2019-03-09T22:12:48.751Z,2.50
2019-03-09T22:15:19.196Z,1.90
2019-03-09T22:17:48.459Z,3.23
2019-03-09T22:20:17.734Z,1.50
2019-03-09T22:22:47.041Z,1.30
2019-03-09T22:25:17.489Z,1.50
2019-03-09T22:27:46.931Z,1.87
2019-03-09T22:30:21.966Z,3.03
2019-03-09T22:32:51.571Z,1.00
2019-03-09T22:35:20.839Z,2.67
2019-03-09T22:37:50.116Z,0.90
2019-03-09T22:40:21.097Z,2.00
2019-03-09T22:42:50.366Z,3.10
2019-03-09T22:45:19.880Z,2.57
2019-03-09T22:47:49.147Z,2.87
2019-03-09T22:50:26.527Z,1.80
2019-03-09T22:52:55.865Z,1.10
2019-03-09T22:55:25.407Z,1.20
2019-03-09T22:57:54.766Z,2.40
2019-03-09T23:00:29.428Z,1.47
2019-03-09T23:02:59.010Z,2.33
2019-03-09T23:05:28.415Z,1.07
2019-03-09T23:07:57.705Z,3.07
2019-03-09T23:10:28.392Z,1.10
2019-03-09T23:12:57.908Z,1.67
2019-03-09T23:15:27.428Z,2.20
2019-03-09T23:17:56.697Z,2.93
2019-03-09T23:20:26.044Z,1.30
2019-03-09T23:22:55.315Z,3.03
2019-03-09T23:25:24.587Z,1.23
2019-03-09T23:27:53.867Z,1.43
2019-03-09T23:30:23.779Z,3.27
2019-03-09T23:32:53.052Z,1.60
2019-03-09T23:35:22.328Z,1.17
2019-03-09T23:37:51.664Z,2.97
2019-03-09T23:40:23.145Z,1.93
2019-03-09T23:42:52.411Z,0.93
2019-03-09T23:45:25.689Z,2.30
2019-03-09T23:47:55.452Z,1.03
2019-03-09T23:50:25.071Z,1.17
2019-03-09T23:52:54.338Z,1.20
2019-03-09T23:55:23.757Z,0.80
2019-03-09T23:57:53.281Z,1.30
